createdAt,value
2022-11-26T00:02:31.460Z,56.97
2022-11-26T00:05:00.113Z,59.75
2022-11-26T00:07:31.061Z,60.55
2022-11-26T00:09:59.963Z,62.25
2022-11-26T00:12:32.984Z,62.65
2022-11-26T00:15:26.327Z,60.92
2022-11-26T00:17:55.205Z,53.42
2022-11-26T00:20:30.133Z,61.63
2022-11-26T00:23:02.500Z,54.25
2022-11-26T00:25:45.269Z,59.63
2022-11-26T00:28:31.102Z,60.35
2022-11-26T00:31:02.334Z,51.75
2022-11-26T00:33:48.730Z,57.13
2022-11-26T00:36:30.107Z,58.70
2022-11-26T00:39:04.305Z,38.67
2022-11-26T00:41:36.423Z,41.15
2022-11-26T00:44:16.079Z,37.58
2022-11-26T00:46:43.743Z,39.17
2022-11-26T00:49:11.598Z,35.75
2022-11-26T00:51:39.592Z,48.47
2022-11-26T00:54:10.246Z,43.55
2022-11-26T00:56:39.983Z,44.15
2022-11-26T00:59:13.598Z,50.90
2022-11-26T01:01:41.414Z,44.88
2022-11-26T01:04:09.436Z,41.92
2022-11-26T01:06:42.091Z,46.95
2022-11-26T01:09:28.256Z,40.42
2022-11-26T01:11:55.865Z,41.60
2022-11-26T01:14:24.176Z,42.15
2022-11-26T01:16:56.346Z,37.80
2022-11-26T01:19:24.265Z,41.00
2022-11-26T01:21:51.730Z,34.75
2022-11-26T01:24:19.658Z,41.30
2022-11-26T01:26:47.147Z,38.35
2022-11-26T01:29:19.739Z,41.70
2022-11-26T01:31:47.823Z,37.05
2022-11-26T01:34:15.810Z,36.50
2022-11-26T01:36:43.404Z,41.58
2022-11-26T01:39:18.817Z,44.20
2022-11-26T01:41:54.416Z,42.30
2022-11-26T01:44:30.408Z,40.28
2022-11-26T01:46:59.622Z,38.00
2022-11-26T01:49:34.517Z,35.10
2022-11-26T01:52:25.817Z,42.38
2022-11-26T01:54:54.471Z,46.95
2022-11-26T01:57:32.924Z,41.55
2022-11-26T02:00:01.633Z,43.50
2022-11-26T02:02:30.028Z,44.22
2022-11-26T02:05:24.190Z,80.72
2022-11-26T02:07:53.330Z,106.32
2022-11-26T02:10:21.154Z,128.77
2022-11-26T02:12:50.084Z,105.60
2022-11-26T02:15:18.102Z,74.70
2022-11-26T02:18:01.516Z,85.97
2022-11-26T02:21:00.584Z,140.40
2022-11-26T02:23:52.254Z,84.68
2022-11-26T02:26:59.443Z,139.43
2022-11-26T02:29:49.792Z,146.48
2022-11-26T02:32:24.125Z,127.05
2022-11-26T02:34:59.720Z,153.88
2022-11-26T02:38:02.863Z,131.98
2022-11-26T02:40:30.432Z,181.25
2022-11-26T02:42:58.505Z,135.07
2022-11-26T02:45:32.736Z,132.43
2022-11-26T02:48:03.728Z,102.93
2022-11-26T02:50:57.011Z,101.93
2022-11-26T02:53:45.505Z,84.72
2022-11-26T02:56:22.588Z,103.43
2022-11-26T02:58:52.822Z,135.57
2022-11-26T03:01:31.885Z,94.43
2022-11-26T03:06:34.425Z,92.10
2022-11-26T03:09:02.460Z,82.63
2022-11-26T03:11:30.792Z,81.03
2022-11-26T03:13:59.271Z,68.03
2022-11-26T03:16:26.890Z,75.57
2022-11-26T03:18:54.943Z,74.13
2022-11-26T03:21:22.736Z,68.68
2022-11-26T03:23:50.774Z,69.65
2022-11-26T03:26:18.774Z,79.32
2022-11-26T03:28:46.964Z,78.50
2022-11-26T03:31:16.255Z,83.30
2022-11-26T03:36:12.606Z,59.65
2022-11-26T03:38:41.195Z,51.20
2022-11-26T03:41:09.530Z,51.30
2022-11-26T03:43:38.273Z,54.00
2022-11-26T03:46:06.635Z,57.78
2022-11-26T03:48:34.925Z,59.15
2022-11-26T03:51:02.713Z,59.17
2022-11-26T03:53:30.575Z,57.22
2022-11-26T03:55:58.163Z,60.00
2022-11-26T03:58:26.046Z,54.40
2022-11-26T04:00:53.670Z,51.65
2022-11-26T04:03:21.975Z,58.05
2022-11-26T04:05:49.926Z,55.67
2022-11-26T04:08:18.613Z,58.50
2022-11-26T04:10:46.576Z,47.80
2022-11-26T04:13:14.560Z,58.97
2022-11-26T04:15:42.121Z,48.55
2022-11-26T04:18:09.968Z,45.50
2022-11-26T04:20:37.448Z,47.25
2022-11-26T04:23:05.731Z,45.83
2022-11-26T04:25:33.524Z,58.90
2022-11-26T04:28:01.446Z,71.28
2022-11-26T04:30:30.033Z,71.85
2022-11-26T04:32:57.993Z,71.22
2022-11-26T04:35:25.606Z,68.95
2022-11-26T04:37:53.485Z,70.70
2022-11-26T04:40:21.010Z,69.07
2022-11-26T04:42:48.828Z,71.05
2022-11-26T04:45:16.329Z,74.40
2022-11-26T04:47:44.229Z,84.55
2022-11-26T04:50:12.551Z,82.00
2022-11-26T04:52:58.887Z,66.43
2022-11-26T04:55:26.359Z,76.30
2022-11-26T04:57:54.190Z,144.35
2022-11-26T05:00:22.020Z,74.50
2022-11-26T05:02:49.912Z,76.88
2022-11-26T05:05:17.750Z,137.65
2022-11-26T05:07:45.633Z,63.50
2022-11-26T05:10:13.737Z,75.45
2022-11-26T05:12:41.662Z,78.07
2022-11-26T05:15:09.645Z,65.03
2022-11-26T05:17:38.013Z,97.43
2022-11-26T05:20:06.807Z,90.47
2022-11-26T05:22:34.902Z,145.00
2022-11-26T05:25:02.425Z,82.13
2022-11-26T05:27:30.328Z,91.80
2022-11-26T05:29:57.856Z,59.78
2022-11-26T05:32:25.666Z,71.05
2022-11-26T05:34:57.030Z,104.70
2022-11-26T05:37:27.942Z,82.72
2022-11-26T05:39:55.454Z,76.22
2022-11-26T05:42:23.572Z,71.85
2022-11-26T05:44:51.136Z,108.18
2022-11-26T05:47:21.396Z,59.92
2022-11-26T05:49:49.162Z,62.25
2022-11-26T05:52:17.013Z,86.45
2022-11-26T05:54:44.613Z,63.13
2022-11-26T05:57:12.603Z,72.13
2022-11-26T05:59:40.168Z,61.17
2022-11-26T06:02:27.191Z,113.63
2022-11-26T06:04:54.849Z,59.47
2022-11-26T06:07:22.822Z,64.35
2022-11-26T06:09:50.356Z,62.10
2022-11-26T06:12:19.301Z,65.28
2022-11-26T06:14:48.170Z,64.78
2022-11-26T06:17:16.485Z,55.85
2022-11-26T06:19:44.067Z,64.75
2022-11-26T06:22:11.953Z,65.72
2022-11-26T06:24:39.845Z,60.50
2022-11-26T06:27:08.072Z,65.90
2022-11-26T06:29:35.896Z,54.45
2022-11-26T06:32:03.985Z,65.32
2022-11-26T06:34:31.707Z,64.75
2022-11-26T06:36:59.539Z,58.60
2022-11-26T06:39:27.283Z,53.50
2022-11-26T06:41:55.178Z,56.78
2022-11-26T06:44:22.656Z,53.28
2022-11-26T06:46:50.598Z,55.65
2022-11-26T06:49:18.212Z,63.70
2022-11-26T06:51:46.086Z,65.00
2022-11-26T06:54:14.371Z,91.40
2022-11-26T06:56:42.230Z,75.37
2022-11-26T06:59:09.760Z,73.90
2022-11-26T07:01:38.425Z,92.60
2022-11-26T07:04:06.138Z,85.32
2022-11-26T07:06:34.384Z,86.75
2022-11-26T07:09:09.024Z,111.22
2022-11-26T07:11:38.380Z,136.40
2022-11-26T07:14:07.170Z,62.85
2022-11-26T07:16:36.249Z,67.85
2022-11-26T07:19:03.995Z,68.75
2022-11-26T07:21:32.044Z,73.60
2022-11-26T07:24:00.105Z,79.50
2022-11-26T07:26:27.988Z,55.90
2022-11-26T07:28:55.516Z,89.95
2022-11-26T07:31:24.417Z,72.47
2022-11-26T07:33:52.439Z,91.47
2022-11-26T07:36:27.747Z,92.32
2022-11-26T07:38:58.193Z,101.60
2022-11-26T07:41:27.784Z,98.68
2022-11-26T07:43:55.839Z,124.47
2022-11-26T07:46:29.889Z,91.85
2022-11-26T07:48:58.586Z,103.75
2022-11-26T07:51:32.114Z,97.70
2022-11-26T07:54:06.056Z,93.07
2022-11-26T07:56:34.744Z,108.93
2022-11-26T07:59:04.138Z,91.55
2022-11-26T08:01:32.688Z,103.88
2022-11-26T08:04:19.224Z,90.93
2022-11-26T08:06:48.477Z,94.72
2022-11-26T08:09:16.146Z,87.05
2022-11-26T08:11:44.822Z,92.70
2022-11-26T08:14:13.764Z,84.10
2022-11-26T08:16:42.758Z,85.93
2022-11-26T08:19:14.419Z,88.03
2022-11-26T08:21:42.603Z,102.80
2022-11-26T08:24:19.163Z,89.18
2022-11-26T08:26:47.728Z,87.88
2022-11-26T08:29:15.605Z,79.13
2022-11-26T08:31:46.514Z,88.70
2022-11-26T08:34:16.505Z,84.93
2022-11-26T08:36:45.623Z,83.05
2022-11-26T08:41:50.593Z,76.68
2022-11-26T08:44:27.915Z,88.18
2022-11-26T08:46:55.398Z,84.32
2022-11-26T08:49:23.297Z,74.07
2022-11-26T08:51:50.797Z,75.85
2022-11-26T08:54:18.601Z,89.80
2022-11-26T08:56:46.148Z,92.57
2022-11-26T08:59:14.131Z,89.93
2022-11-26T09:01:41.859Z,87.70
2022-11-26T09:04:09.899Z,96.53
2022-11-26T09:06:37.861Z,83.38
2022-11-26T09:09:12.749Z,91.65
2022-11-26T09:11:57.449Z,102.88
2022-11-26T09:14:29.096Z,92.53
2022-11-26T09:16:58.348Z,92.68
2022-11-26T09:21:55.799Z,89.97
2022-11-26T09:24:23.823Z,90.68
2022-11-26T09:26:52.094Z,90.97
2022-11-26T09:29:23.039Z,96.33
2022-11-26T09:37:08.754Z,103.03
2022-11-26T09:39:36.537Z,90.43
2022-11-26T09:42:31.741Z,96.90
2022-11-26T09:45:19.072Z,96.50
2022-11-26T09:47:52.620Z,92.10
2022-11-26T09:50:32.159Z,103.15
2022-11-26T09:53:09.559Z,94.07
2022-11-26T09:55:43.605Z,108.80
2022-11-26T09:58:36.370Z,97.75
2022-11-26T10:01:06.852Z,87.45
2022-11-26T10:03:37.903Z,90.97
2022-11-26T10:06:34.343Z,74.47
2022-11-26T10:09:16.905Z,76.72
2022-11-26T10:12:26.126Z,77.55
2022-11-26T10:15:34.140Z,65.53
2022-11-26T10:18:37.456Z,66.68
2022-11-26T10:21:57.017Z,63.53
2022-11-26T10:24:38.679Z,66.00
2022-11-26T10:27:24.448Z,68.43
2022-11-26T10:29:59.677Z,75.78
2022-11-26T10:32:39.174Z,66.22
2022-11-26T10:35:14.221Z,61.42
2022-11-26T10:37:41.932Z,66.85
2022-11-26T10:40:12.632Z,71.07
2022-11-26T10:42:43.916Z,58.95
2022-11-26T10:45:42.132Z,51.65
2022-11-26T10:48:32.005Z,58.45
2022-11-26T10:51:30.344Z,76.25
2022-11-26T10:54:03.957Z,73.38
2022-11-26T10:56:47.605Z,76.68
2022-11-26T10:59:38.028Z,75.07
2022-11-26T11:02:31.511Z,81.13
2022-11-26T11:05:04.516Z,71.35
2022-11-26T11:07:38.732Z,90.50
2022-11-26T11:10:17.977Z,85.72
2022-11-26T11:13:00.961Z,83.22
2022-11-26T11:15:32.620Z,88.28
2022-11-26T11:18:21.992Z,97.93
2022-11-26T11:20:56.688Z,90.57
2022-11-26T11:23:59.998Z,88.20
2022-11-26T11:26:24.948Z,82.38
2022-11-26T11:28:56.623Z,79.30
2022-11-26T11:31:28.236Z,79.93
2022-11-26T11:34:23.871Z,73.32
2022-11-26T11:37:27.037Z,75.63
2022-11-26T11:40:17.201Z,65.43
2022-11-26T11:42:52.848Z,70.78
2022-11-26T11:45:38.833Z,63.05
2022-11-26T11:48:35.587Z,60.65
2022-11-26T11:51:47.434Z,63.05
2022-11-26T11:54:23.890Z,64.32
2022-11-26T11:57:12.719Z,64.32
2022-11-26T12:00:13.621Z,61.50
2022-11-26T12:02:53.606Z,70.47
2022-11-26T12:06:05.902Z,71.18
2022-11-26T12:08:51.313Z,80.32
2022-11-26T12:11:22.803Z,82.82
2022-11-26T12:14:20.873Z,86.55
2022-11-26T12:16:55.702Z,84.43
2022-11-26T12:19:54.736Z,81.57
2022-11-26T12:22:49.173Z,88.60
2022-11-26T12:25:38.156Z,82.63
2022-11-26T12:28:19.608Z,85.28
2022-11-26T12:31:49.201Z,83.53
2022-11-26T12:37:11.358Z,75.28
2022-11-26T12:40:11.917Z,72.55
2022-11-26T12:43:07.134Z,75.75
2022-11-26T12:46:01.630Z,64.57
2022-11-26T12:48:53.872Z,70.15
2022-11-26T12:51:42.174Z,68.85
2022-11-26T12:54:47.172Z,68.40
2022-11-26T12:57:34.358Z,69.97
2022-11-26T13:00:26.122Z,64.13
2022-11-26T13:02:56.010Z,61.72
2022-11-26T13:05:51.292Z,68.90
2022-11-26T13:08:48.676Z,59.72
2022-11-26T13:11:34.732Z,58.22
2022-11-26T13:14:14.658Z,58.85
2022-11-26T13:17:11.066Z,53.08
2022-11-26T13:20:01.416Z,49.92
2022-11-26T13:23:00.121Z,49.88
2022-11-26T13:26:02.083Z,50.55
2022-11-26T13:29:13.954Z,33.90
2022-11-26T13:32:13.160Z,36.60
2022-11-26T13:35:12.572Z,38.10
2022-11-26T13:40:47.054Z,57.03
2022-11-26T13:44:00.573Z,54.20
2022-11-26T13:46:31.727Z,49.88
2022-11-26T13:49:24.921Z,61.65
2022-11-26T13:52:10.392Z,60.90
2022-11-26T13:55:08.865Z,64.85
2022-11-26T13:57:45.421Z,78.20
2022-11-26T14:00:26.513Z,76.80
2022-11-26T14:02:54.963Z,87.43
2022-11-26T14:05:51.744Z,83.68
2022-11-26T14:08:41.483Z,91.55
2022-11-26T14:13:38.114Z,91.97
2022-11-26T14:16:10.712Z,96.00
2022-11-26T14:18:53.563Z,94.70
2022-11-26T14:21:22.507Z,97.20
2022-11-26T14:24:02.112Z,104.10
2022-11-26T14:26:40.102Z,97.72
2022-11-26T14:29:07.979Z,94.72
2022-11-26T14:31:50.406Z,88.53
2022-11-26T14:34:39.740Z,71.32
2022-11-26T14:37:16.908Z,60.42
2022-11-26T14:39:45.651Z,72.47
2022-11-26T14:42:18.122Z,83.50
2022-11-26T14:44:46.119Z,83.13
2022-11-26T14:47:22.123Z,75.47
2022-11-26T14:50:00.292Z,57.00
2022-11-26T14:52:35.896Z,50.05
2022-11-26T14:55:28.965Z,51.40
2022-11-26T14:58:10.291Z,45.38
2022-11-26T15:00:38.256Z,48.75
2022-11-26T15:03:26.674Z,52.75
2022-11-26T15:05:54.715Z,46.50
2022-11-26T15:08:27.030Z,53.97
2022-11-26T15:11:02.843Z,55.00
2022-11-26T15:13:38.302Z,63.75
2022-11-26T15:16:36.556Z,62.25
2022-11-26T15:19:06.724Z,66.20
2022-11-26T15:21:34.864Z,69.70
2022-11-26T15:24:07.447Z,68.25
2022-11-26T15:26:38.591Z,78.60
2022-11-26T15:29:36.871Z,69.18
2022-11-26T15:32:06.500Z,71.13
2022-11-26T15:34:34.482Z,71.85
2022-11-26T15:37:04.035Z,74.10
2022-11-26T15:39:32.245Z,86.07
2022-11-26T15:42:22.273Z,77.93
2022-11-26T15:44:50.592Z,78.38
2022-11-26T15:47:22.809Z,87.40
2022-11-26T15:49:56.647Z,91.95
2022-11-26T15:52:32.860Z,85.20
2022-11-26T15:55:13.185Z,75.13
2022-11-26T15:57:43.121Z,69.30
2022-11-26T16:00:41.162Z,83.40
2022-11-26T16:03:42.991Z,84.15
2022-11-26T16:06:30.421Z,82.90
2022-11-26T16:09:07.718Z,76.57
2022-11-26T16:11:55.729Z,76.88
2022-11-26T16:14:35.753Z,72.60
2022-11-26T16:19:56.222Z,66.63
2022-11-26T16:22:28.902Z,59.00
2022-11-26T16:25:04.178Z,60.28
2022-11-26T16:27:33.282Z,63.80
2022-11-26T16:30:14.858Z,63.05
2022-11-26T16:32:42.386Z,67.07
2022-11-26T16:35:37.533Z,69.60
2022-11-26T16:37:58.763Z,60.78
2022-11-26T16:40:27.828Z,52.95
2022-11-26T16:42:56.134Z,59.97
2022-11-26T16:45:24.026Z,48.72
2022-11-26T16:47:56.091Z,45.17
2022-11-26T16:50:27.435Z,46.58
2022-11-26T16:52:55.995Z,45.10
2022-11-26T16:55:27.425Z,37.10
2022-11-26T16:57:59.646Z,43.47
2022-11-26T17:00:28.379Z,39.80
2022-11-26T17:02:56.365Z,41.90
2022-11-26T17:05:25.933Z,47.15
2022-11-26T17:08:00.083Z,48.80
2022-11-26T17:10:29.884Z,40.70
2022-11-26T17:12:58.386Z,49.70
2022-11-26T17:15:26.501Z,36.97
2022-11-26T17:18:05.420Z,43.70
2022-11-26T17:20:33.428Z,51.08
2022-11-26T17:23:00.967Z,42.75
2022-11-26T17:25:29.096Z,46.13
2022-11-26T17:27:56.864Z,44.22
2022-11-26T17:30:25.196Z,46.47
2022-11-26T17:32:52.916Z,39.15
2022-11-26T17:35:21.147Z,44.00
2022-11-26T17:37:48.888Z,51.33
2022-11-26T17:40:24.148Z,46.58
2022-11-26T17:42:51.929Z,52.15
2022-11-26T17:45:20.214Z,58.08
2022-11-26T17:47:48.711Z,56.55
2022-11-26T17:50:25.538Z,40.92
2022-11-26T17:52:54.639Z,60.83
2022-11-26T17:55:25.637Z,63.13
2022-11-26T17:57:55.990Z,64.72
2022-11-26T18:00:28.531Z,62.90
2022-11-26T18:02:57.477Z,64.28
2022-11-26T18:05:25.916Z,80.07
2022-11-26T18:07:53.565Z,78.55
2022-11-26T18:10:23.086Z,89.68
2022-11-26T18:12:54.325Z,80.38
2022-11-26T18:15:27.088Z,76.35
2022-11-26T18:17:55.981Z,72.90
2022-11-26T18:20:28.120Z,68.82
2022-11-26T18:22:59.981Z,75.25
2022-11-26T18:25:29.202Z,67.50
2022-11-26T18:27:56.842Z,77.25
2022-11-26T18:30:25.489Z,75.30
2022-11-26T18:32:53.269Z,68.63
2022-11-26T18:35:22.922Z,61.83
2022-11-26T18:37:51.205Z,64.72
2022-11-26T18:40:22.444Z,64.20
2022-11-26T18:42:53.210Z,66.20
2022-11-26T18:45:21.129Z,67.40
2022-11-26T18:47:48.715Z,59.65
2022-11-26T18:50:16.855Z,59.67
2022-11-26T18:52:44.583Z,60.50
2022-11-26T18:55:15.089Z,68.22
2022-11-26T18:57:42.641Z,62.50
2022-11-26T19:00:11.199Z,63.58
2022-11-26T19:02:38.855Z,61.60
2022-11-26T19:05:08.918Z,66.10
2022-11-26T19:07:37.558Z,62.08
2022-11-26T19:10:07.153Z,62.85
2022-11-26T19:15:02.651Z,65.07
2022-11-26T19:17:30.271Z,66.22
2022-11-26T19:19:58.169Z,71.05
2022-11-26T19:22:25.729Z,68.72
2022-11-26T19:24:53.545Z,66.55
2022-11-26T19:27:21.072Z,69.25
2022-11-26T19:29:49.219Z,70.47
2022-11-26T19:32:17.600Z,69.25
2022-11-26T19:34:45.665Z,95.55
2022-11-26T19:37:13.194Z,78.78
2022-11-26T19:39:41.505Z,83.57
2022-11-26T19:42:10.807Z,73.07
2022-11-26T19:44:38.714Z,78.75
2022-11-26T19:47:06.363Z,75.22
2022-11-26T19:49:34.691Z,93.60
2022-11-26T19:52:02.178Z,129.50
2022-11-26T19:54:32.334Z,94.57
2022-11-26T19:56:59.880Z,80.75
2022-11-26T19:59:27.741Z,75.75
2022-11-26T20:01:55.921Z,73.68
2022-11-26T20:04:27.466Z,76.40
2022-11-26T20:06:55.418Z,67.22
2022-11-26T20:09:23.280Z,72.03
2022-11-26T20:11:50.823Z,75.70
2022-11-26T20:14:18.893Z,73.32
2022-11-26T20:16:47.022Z,81.28
2022-11-26T20:19:14.993Z,90.45
2022-11-26T20:21:42.526Z,84.35
2022-11-26T20:24:17.908Z,82.53
2022-11-26T20:26:48.649Z,85.15
2022-11-26T20:29:19.355Z,86.03
2022-11-26T20:31:49.946Z,87.55
2022-11-26T20:34:29.992Z,82.15
2022-11-26T20:36:57.542Z,89.93
2022-11-26T20:39:25.677Z,83.80
2022-11-26T20:41:53.282Z,101.43
2022-11-26T20:44:23.149Z,91.05
2022-11-26T20:46:51.267Z,88.35
2022-11-26T20:49:19.817Z,96.38
2022-11-26T20:51:47.548Z,95.88
2022-11-26T20:54:17.734Z,90.80
2022-11-26T20:56:47.086Z,91.28
2022-11-26T20:59:14.891Z,86.45
2022-11-26T21:01:42.695Z,97.72
2022-11-26T21:04:10.742Z,94.40
2022-11-26T21:06:41.822Z,88.25
2022-11-26T21:09:12.906Z,83.63
2022-11-26T21:11:41.648Z,92.00
2022-11-26T21:14:14.621Z,93.07
2022-11-26T21:16:45.140Z,98.50
2022-11-26T21:19:13.741Z,88.65
2022-11-26T21:21:41.942Z,89.57
2022-11-26T21:24:09.726Z,87.80
2022-11-26T21:26:37.317Z,93.43
2022-11-26T21:29:05.134Z,102.13
2022-11-26T21:31:32.861Z,91.63
2022-11-26T21:34:07.522Z,94.30
2022-11-26T21:36:38.177Z,95.97
2022-11-26T21:39:07.179Z,105.10
2022-11-26T21:41:35.735Z,104.82
2022-11-26T21:44:04.305Z,100.40
2022-11-26T21:46:38.286Z,98.60
2022-11-26T21:49:07.662Z,106.32
2022-11-26T21:51:35.373Z,112.43
2022-11-26T21:54:03.724Z,109.35
2022-11-26T21:56:32.542Z,110.88
2022-11-26T21:59:02.001Z,108.97
2022-11-26T22:01:33.332Z,115.13
2022-11-26T22:04:07.952Z,106.15
2022-11-26T22:06:35.778Z,105.25
2022-11-26T22:09:04.586Z,100.68
2022-11-26T22:11:36.721Z,105.70
2022-11-26T22:14:08.291Z,99.88
2022-11-26T22:16:36.534Z,102.90
2022-11-26T22:19:05.442Z,104.13
2022-11-26T22:21:38.569Z,97.60
2022-11-26T22:24:11.272Z,94.22
2022-11-26T22:26:39.366Z,105.00
2022-11-26T22:29:07.821Z,97.50
2022-11-26T22:31:38.283Z,104.95
2022-11-26T22:34:16.659Z,100.25
2022-11-26T22:36:45.586Z,102.07
2022-11-26T22:39:16.573Z,106.43
2022-11-26T22:41:48.426Z,109.40
2022-11-26T22:44:17.903Z,103.07
2022-11-26T22:46:45.778Z,109.65
2022-11-26T22:49:18.968Z,105.55
2022-11-26T22:51:47.472Z,109.60
2022-11-26T22:54:17.986Z,104.72
2022-11-26T22:56:45.705Z,125.68
2022-11-26T22:59:14.870Z,118.32
2022-11-26T23:01:42.665Z,118.75
2022-11-26T23:04:11.949Z,121.22
2022-11-26T23:06:40.388Z,108.07
2022-11-26T23:09:10.961Z,124.73
2022-11-26T23:11:42.021Z,111.35
2022-11-26T23:14:12.148Z,104.88
2022-11-26T23:16:42.549Z,110.15
2022-11-26T23:19:14.028Z,111.25
2022-11-26T23:21:43.529Z,111.72
2022-11-26T23:24:12.465Z,105.55
2022-11-26T23:26:43.022Z,109.40
2022-11-26T23:29:12.230Z,105.63
2022-11-26T23:31:42.859Z,108.20
2022-11-26T23:34:11.402Z,109.55
2022-11-26T23:36:39.995Z,108.57
2022-11-26T23:39:11.079Z,108.07
2022-11-26T23:41:38.669Z,97.13
2022-11-26T23:44:06.519Z,96.28
2022-11-26T23:46:35.532Z,99.45
2022-11-26T23:49:04.757Z,103.88
2022-11-26T23:51:33.672Z,92.35
2022-11-26T23:54:01.756Z,103.22
2022-11-26T23:56:32.478Z,97.93
2022-11-26T23:59:03.995Z,95.68
